createdAt,value
2023-03-10T00:02:30.568Z,99308.28
2023-03-10T00:05:04.052Z,99301.44
2023-03-10T00:07:36.592Z,99305.75
2023-03-10T00:10:11.545Z,99298.00
2023-03-10T00:12:44.140Z,99290.22
2023-03-10T00:15:16.217Z,99288.56
2023-03-10T00:17:50.278Z,99283.44
2023-03-10T00:20:23.481Z,99277.41
2023-03-10T00:22:55.493Z,99271.47
2023-03-10T00:25:27.431Z,99268.88
2023-03-10T00:27:59.442Z,99263.75
2023-03-10T00:33:52.501Z,99258.59
2023-03-10T00:36:27.998Z,99252.59
2023-03-10T00:39:10.134Z,99244.00
2023-03-10T00:41:43.910Z,99238.88
2023-03-10T00:44:16.124Z,99227.72
2023-03-10T00:46:48.305Z,99219.13
2023-03-10T00:49:20.946Z,99225.13
2023-03-10T00:51:53.055Z,99213.09
2023-03-10T00:54:26.942Z,99211.41
2023-03-10T00:56:59.085Z,99199.38
2023-03-10T00:59:40.491Z,99189.13
2023-03-10T01:02:20.185Z,99183.94
2023-03-10T01:04:52.212Z,99171.03
2023-03-10T01:07:24.201Z,99176.22
2023-03-10T01:09:56.211Z,99166.78
2023-03-10T01:12:28.201Z,99159.91
2023-03-10T01:15:00.180Z,99157.31
2023-03-10T01:17:32.152Z,99158.19
2023-03-10T01:20:09.965Z,99153.91
2023-03-10T01:22:57.069Z,99144.44
2023-03-10T01:25:29.386Z,99138.44
2023-03-10T01:28:01.463Z,99135.84
2023-03-10T01:30:33.482Z,99132.41
2023-03-10T01:33:05.978Z,99120.38
2023-03-10T01:35:39.017Z,99132.41
2023-03-10T01:38:11.581Z,99112.66
2023-03-10T01:40:50.319Z,99109.22
2023-03-10T01:43:31.330Z,99115.25
2023-03-10T01:46:42.764Z,99099.78
2023-03-10T01:49:24.328Z,99091.19
2023-03-10T01:52:21.349Z,99086.91
2023-03-10T01:55:00.945Z,99081.75
2023-03-10T01:57:40.820Z,99081.75
2023-03-10T02:00:14.802Z,99073.16
2023-03-10T02:02:57.694Z,99061.13
2023-03-10T02:05:31.544Z,99064.56
2023-03-10T02:08:08.889Z,99055.97
2023-03-10T02:10:41.756Z,99043.09
2023-03-10T02:13:13.817Z,99043.94
2023-03-10T02:15:46.808Z,99028.50
2023-03-10T02:19:39.796Z,99030.22
2023-03-10T02:22:15.734Z,99028.50
2023-03-10T02:24:55.244Z,99016.47
2023-03-10T02:27:32.584Z,99016.47
2023-03-10T02:30:29.356Z,99016.47
2023-03-10T02:33:08.106Z,99009.59
2023-03-10T02:35:40.236Z,98993.28
2023-03-10T02:38:12.242Z,98989.84
2023-03-10T02:40:55.482Z,98987.28
2023-03-10T02:43:33.161Z,98989.00
2023-03-10T02:46:07.800Z,98982.13
2023-03-10T02:48:40.941Z,98978.69
2023-03-10T02:51:22.036Z,98970.09
2023-03-10T02:53:54.153Z,98972.66
2023-03-10T02:56:27.365Z,98971.81
2023-03-10T02:59:00.392Z,98975.25
2023-03-10T03:01:33.124Z,98964.94
2023-03-10T03:04:05.429Z,98964.94
2023-03-10T03:06:39.778Z,98959.78
2023-03-10T03:09:11.791Z,98964.09
2023-03-10T03:11:43.878Z,98955.50
2023-03-10T03:14:18.377Z,98953.78
2023-03-10T03:17:09.450Z,98948.63
2023-03-10T03:19:41.541Z,98948.63
2023-03-10T03:22:13.512Z,98929.75
2023-03-10T03:24:45.578Z,98932.31
2023-03-10T03:27:17.674Z,98930.59
2023-03-10T03:29:49.721Z,98931.44
2023-03-10T03:32:22.446Z,98928.00
2023-03-10T03:34:54.599Z,98926.28
2023-03-10T03:37:26.598Z,98930.59
2023-03-10T03:39:58.642Z,98929.72
2023-03-10T03:42:30.846Z,98928.88
2023-03-10T03:45:02.946Z,98922.00
2023-03-10T03:47:35.363Z,98922.84
2023-03-10T03:50:10.180Z,98920.28
2023-03-10T03:52:43.317Z,98917.72
2023-03-10T03:55:17.644Z,98910.84
2023-03-10T03:57:51.142Z,98910.84
2023-03-10T04:00:25.324Z,98909.97
2023-03-10T04:02:57.384Z,98916.84
2023-03-10T04:05:29.456Z,98913.41
2023-03-10T04:08:01.407Z,98912.56
2023-03-10T04:10:33.554Z,98919.44
2023-03-10T04:13:05.828Z,98920.28
2023-03-10T04:15:37.936Z,98915.13
2023-03-10T04:18:10.773Z,98922.00
2023-03-10T04:20:42.760Z,98927.16
2023-03-10T04:23:15.790Z,98922.88
2023-03-10T04:25:51.889Z,98918.56
2023-03-10T04:28:23.914Z,98924.59
2023-03-10T04:30:57.200Z,98930.59
2023-03-10T04:33:37.908Z,98926.31
2023-03-10T04:36:10.451Z,98923.69
2023-03-10T04:38:42.675Z,98929.72
2023-03-10T04:41:15.088Z,98934.88
2023-03-10T04:43:53.263Z,98931.44
2023-03-10T04:46:25.355Z,98929.72
2023-03-10T04:48:57.594Z,98935.72
2023-03-10T04:51:29.638Z,98931.44
2023-03-10T04:54:01.793Z,98933.16
2023-03-10T04:56:33.951Z,98933.16
2023-03-10T04:59:07.908Z,98941.72
2023-03-10T05:01:41.578Z,98925.41
2023-03-10T05:04:14.571Z,98936.59
2023-03-10T05:06:53.717Z,98933.16
2023-03-10T05:09:25.707Z,98936.59
2023-03-10T05:11:57.703Z,98943.44
2023-03-10T05:14:43.255Z,98945.16
2023-03-10T05:17:16.443Z,98956.31
2023-03-10T05:19:48.519Z,98952.03
2023-03-10T05:22:20.617Z,98958.91
2023-03-10T05:24:52.860Z,98955.47
2023-03-10T05:27:24.866Z,98954.59
2023-03-10T05:30:05.737Z,98956.31
2023-03-10T05:32:38.124Z,98958.03
2023-03-10T05:35:11.475Z,98958.03
2023-03-10T05:37:44.784Z,98964.91
2023-03-10T05:40:19.837Z,98964.91
2023-03-10T05:42:52.042Z,98963.19
2023-03-10T05:45:24.048Z,98969.19
2023-03-10T05:47:56.056Z,98966.63
2023-03-10T05:50:28.136Z,98969.19
2023-03-10T05:53:00.092Z,98965.75
2023-03-10T05:55:53.982Z,98964.91
2023-03-10T05:58:26.767Z,98966.63
2023-03-10T06:00:58.752Z,98970.91
2023-03-10T06:03:31.095Z,98965.78
2023-03-10T06:06:04.432Z,98963.19
2023-03-10T06:08:36.885Z,98970.91
2023-03-10T06:11:09.377Z,98964.03
2023-03-10T06:13:41.442Z,98965.75
2023-03-10T06:16:31.504Z,98960.63
2023-03-10T06:19:03.582Z,98963.19
2023-03-10T06:21:35.624Z,98967.47
2023-03-10T06:24:07.742Z,98969.19
2023-03-10T06:27:52.922Z,98966.63
2023-03-10T06:30:25.006Z,98969.19
2023-03-10T06:32:57.029Z,98965.81
2023-03-10T06:35:29.651Z,98966.66
2023-03-10T06:38:01.918Z,98959.78
2023-03-10T06:40:34.017Z,98963.22
2023-03-10T06:43:56.959Z,98964.94
2023-03-10T06:46:52.351Z,98958.94
2023-03-10T06:49:30.375Z,98965.81
2023-03-10T06:52:02.508Z,98965.81
2023-03-10T06:54:34.559Z,98967.53
2023-03-10T06:57:21.106Z,98971.81
2023-03-10T07:00:24.395Z,98976.97
2023-03-10T07:02:56.636Z,98980.41
2023-03-10T07:05:28.666Z,98976.09
2023-03-10T07:08:00.632Z,98979.53
2023-03-10T07:10:32.647Z,98992.41
2023-03-10T07:13:57.103Z,98994.13
2023-03-10T07:16:29.260Z,98996.72
2023-03-10T07:19:01.310Z,99003.59
2023-03-10T07:21:33.440Z,99004.44
2023-03-10T07:24:05.992Z,99011.31
2023-03-10T07:26:38.474Z,99013.91
2023-03-10T07:29:52.169Z,99011.31
2023-03-10T07:32:24.272Z,99010.44
2023-03-10T07:34:56.255Z,99015.56
2023-03-10T07:37:29.841Z,99011.28
2023-03-10T07:40:01.862Z,99014.69
2023-03-10T07:42:34.028Z,99012.97
2023-03-10T07:48:48.988Z,99029.28
2023-03-10T07:51:22.511Z,99027.56
2023-03-10T07:53:54.504Z,99023.28
2023-03-10T07:56:26.517Z,99031.00
2023-03-10T07:59:01.403Z,99037.88
2023-03-10T08:01:33.644Z,99047.31
2023-03-10T08:04:06.579Z,99053.31
2023-03-10T08:06:38.875Z,99059.31
2023-03-10T08:09:11.003Z,99061.03
2023-03-10T08:11:43.072Z,99064.47
2023-03-10T08:14:16.131Z,99069.63
2023-03-10T08:16:48.266Z,99068.78
2023-03-10T08:23:00.902Z,99066.22
2023-03-10T08:25:33.030Z,99069.69
2023-03-10T08:28:05.316Z,99074.00
2023-03-10T08:30:49.054Z,99068.84
2023-03-10T08:34:21.735Z,99073.16
2023-03-10T08:36:55.485Z,99068.00
2023-03-10T08:39:29.135Z,99062.84
2023-03-10T08:42:01.632Z,99071.44
2023-03-10T08:44:34.353Z,99076.59
2023-03-10T08:47:06.877Z,99077.47
2023-03-10T08:52:51.002Z,99074.88
2023-03-10T08:55:24.837Z,99074.88
2023-03-10T08:57:56.892Z,99081.75
2023-03-10T09:00:28.901Z,99086.91
2023-03-10T09:03:00.944Z,99084.34
2023-03-10T09:05:33.245Z,99085.19
2023-03-10T09:08:27.537Z,99080.06
2023-03-10T09:11:00.492Z,99070.63
2023-03-10T09:13:32.510Z,99075.75
2023-03-10T09:19:13.055Z,99075.75
2023-03-10T09:21:45.201Z,99075.72
2023-03-10T09:24:18.175Z,99080.00
2023-03-10T09:26:50.503Z,99085.16
2023-03-10T09:29:36.414Z,99083.44
2023-03-10T09:32:14.098Z,99085.13
2023-03-10T09:34:53.366Z,99086.84
2023-03-10T09:37:25.411Z,99087.72
2023-03-10T09:43:12.206Z,99084.22
2023-03-10T09:46:22.411Z,99080.78
2023-03-10T09:48:57.404Z,99085.06
2023-03-10T09:51:29.946Z,99086.72
2023-03-10T09:54:39.551Z,99099.56
2023-03-10T09:57:21.517Z,99102.13
2023-03-10T10:00:01.468Z,99098.63
2023-03-10T10:02:39.708Z,99108.09
2023-03-10T10:05:26.706Z,99113.22
2023-03-10T10:08:04.314Z,99101.22
2023-03-10T10:10:38.719Z,99107.25
2023-03-10T10:13:17.649Z,99107.19
2023-03-10T10:16:32.058Z,99115.75
2023-03-10T10:19:25.850Z,99118.34
2023-03-10T10:22:15.686Z,99121.75
2023-03-10T10:25:09.746Z,99120.84
2023-03-10T10:27:49.314Z,99113.03
2023-03-10T10:30:40.581Z,99110.41
2023-03-10T10:33:15.153Z,99115.47
2023-03-10T10:36:05.597Z,99117.06
2023-03-10T10:38:37.681Z,99114.44
2023-03-10T10:41:25.081Z,99112.66
2023-03-10T10:44:13.159Z,99113.44
2023-03-10T10:46:57.118Z,99122.09
2023-03-10T10:49:34.161Z,99128.13
2023-03-10T10:52:21.768Z,99119.53
2023-03-10T10:54:59.325Z,99102.16
2023-03-10T10:57:38.852Z,99111.66
2023-03-10T11:00:32.994Z,99114.19
2023-03-10T11:03:33.319Z,99114.97
2023-03-10T11:06:29.467Z,99123.91
2023-03-10T11:09:15.247Z,99126.50
2023-03-10T11:12:00.661Z,99120.47
2023-03-10T11:15:03.067Z,99107.47
2023-03-10T11:18:09.261Z,99109.25
2023-03-10T11:21:12.847Z,99115.22
2023-03-10T11:24:11.408Z,99127.38
2023-03-10T11:26:51.205Z,99126.41
2023-03-10T11:29:57.650Z,99134.28
2023-03-10T11:32:51.557Z,99130.78
2023-03-10T11:35:43.782Z,99118.53
2023-03-10T11:38:34.293Z,99120.25
2023-03-10T11:41:26.843Z,99109.03
2023-03-10T11:44:41.959Z,99086.47
2023-03-10T11:47:42.213Z,99089.91
2023-03-10T11:50:43.635Z,99095.09
2023-03-10T11:53:44.079Z,99092.63
2023-03-10T11:56:21.031Z,99088.38
2023-03-10T11:59:14.050Z,99100.47
2023-03-10T12:01:53.424Z,99099.63
2023-03-10T12:04:33.778Z,99095.41
2023-03-10T12:07:32.566Z,99095.63
2023-03-10T12:10:11.408Z,99088.78
2023-03-10T12:12:46.698Z,99087.91
2023-03-10T12:15:32.518Z,99088.69
2023-03-10T12:18:07.508Z,99089.53
2023-03-10T12:20:39.517Z,99094.75
2023-03-10T12:23:11.573Z,99091.22
2023-03-10T12:25:45.599Z,99093.78
2023-03-10T12:28:17.635Z,99081.66
2023-03-10T12:31:02.483Z,99090.34
2023-03-10T12:33:42.090Z,99094.56
2023-03-10T12:36:35.558Z,99080.66
2023-03-10T12:39:38.023Z,99074.47
2023-03-10T12:42:34.985Z,99070.94
2023-03-10T12:45:31.485Z,99076.97
2023-03-10T12:48:18.373Z,99079.56
2023-03-10T12:51:05.177Z,99076.19
2023-03-10T12:54:00.884Z,99068.50
2023-03-10T12:56:40.885Z,99065.03
2023-03-10T12:59:23.464Z,99062.47
2023-03-10T13:01:57.930Z,99061.75
2023-03-10T13:04:30.626Z,99049.78
2023-03-10T13:07:04.287Z,99045.63
2023-03-10T13:09:41.314Z,99046.59
2023-03-10T13:12:32.051Z,99041.53
2023-03-10T13:15:08.266Z,99040.66
2023-03-10T13:17:40.254Z,99038.00
2023-03-10T13:20:17.783Z,99043.09
2023-03-10T13:26:14.784Z,99051.75
2023-03-10T13:28:58.353Z,99059.66
2023-03-10T13:34:44.786Z,99046.81
2023-03-10T13:37:16.812Z,99050.28
2023-03-10T13:39:48.870Z,99043.41
2023-03-10T13:42:28.423Z,99048.63
2023-03-10T13:45:22.480Z,99044.31
2023-03-10T13:48:10.699Z,99037.50
2023-03-10T13:50:42.818Z,99042.69
2023-03-10T13:53:27.861Z,99059.94
2023-03-10T13:55:59.938Z,99068.59
2023-03-10T13:58:32.309Z,99078.91
2023-03-10T14:01:05.154Z,99081.47
2023-03-10T14:03:38.447Z,99083.22
2023-03-10T14:06:13.990Z,99086.66
2023-03-10T14:08:46.033Z,99093.59
2023-03-10T14:11:46.972Z,99105.69
2023-03-10T14:14:32.377Z,99101.38
2023-03-10T14:17:10.134Z,99098.78
2023-03-10T14:19:42.060Z,99098.81
2023-03-10T14:22:43.878Z,99108.25
2023-03-10T14:25:21.777Z,99109.13
2023-03-10T14:28:52.044Z,99115.16
2023-03-10T14:31:25.158Z,99112.56
2023-03-10T14:33:57.253Z,99113.44
2023-03-10T14:36:29.376Z,99114.28
2023-03-10T14:39:05.322Z,99110.00
2023-03-10T14:41:38.298Z,99109.16
2023-03-10T14:44:11.613Z,99102.28
2023-03-10T14:46:43.821Z,99109.19
2023-03-10T14:49:16.936Z,99116.97
2023-03-10T14:51:49.036Z,99104.94
2023-03-10T14:54:25.957Z,99117.84
2023-03-10T14:57:01.158Z,99113.53
2023-03-10T14:59:33.806Z,99110.94
2023-03-10T15:02:23.552Z,99110.97
2023-03-10T15:05:31.894Z,99116.13
2023-03-10T15:08:07.528Z,99116.16
2023-03-10T15:10:43.423Z,99113.56
2023-03-10T15:13:18.300Z,99111.00
2023-03-10T15:15:52.489Z,99111.00
2023-03-10T15:18:27.112Z,99105.00
2023-03-10T15:21:00.561Z,99102.41
2023-03-10T15:23:32.690Z,99093.81
2023-03-10T15:26:09.741Z,99103.28
2023-03-10T15:28:41.959Z,99102.41
2023-03-10T15:31:14.053Z,99114.44
2023-03-10T15:33:46.065Z,99124.75
2023-03-10T15:36:18.462Z,99123.88
2023-03-10T15:38:50.667Z,99117.00
2023-03-10T15:41:23.835Z,99116.13
2023-03-10T15:43:56.787Z,99112.69
2023-03-10T15:46:28.953Z,99108.41
2023-03-10T15:49:03.879Z,99111.84
2023-03-10T15:51:35.900Z,99110.13
2023-03-10T15:54:12.464Z,99107.53
2023-03-10T15:56:45.072Z,99104.97
2023-03-10T15:59:17.329Z,99101.53
2023-03-10T16:01:49.535Z,99099.84
2023-03-10T16:04:21.877Z,99098.97
2023-03-10T16:06:54.047Z,99100.69
2023-03-10T16:09:26.021Z,99092.97
2023-03-10T16:11:58.086Z,99080.06
2023-03-10T16:14:31.095Z,99068.91
2023-03-10T16:17:03.213Z,99076.63
2023-03-10T16:19:36.880Z,99077.50
2023-03-10T16:22:10.535Z,99086.06
2023-03-10T16:24:43.343Z,99097.22
2023-03-10T16:27:16.445Z,99104.97
2023-03-10T16:29:48.660Z,99110.13
2023-03-10T16:32:24.236Z,99110.13
2023-03-10T16:34:57.010Z,99112.69
2023-03-10T16:37:29.636Z,99111.84
2023-03-10T16:40:02.136Z,99109.25
2023-03-10T16:42:36.424Z,99101.53
2023-03-10T16:45:10.268Z,99109.25
2023-03-10T16:47:44.127Z,99118.69
2023-03-10T16:50:16.692Z,99121.28
2023-03-10T16:52:55.182Z,99125.56
2023-03-10T16:55:27.185Z,99120.41
2023-03-10T16:57:59.220Z,99127.28
2023-03-10T17:00:31.383Z,99132.44
2023-03-10T17:03:03.870Z,99130.69
2023-03-10T17:05:35.978Z,99132.41
2023-03-10T17:08:08.767Z,99136.69
2023-03-10T17:10:42.137Z,99141.84
2023-03-10T17:13:16.052Z,99131.53
2023-03-10T17:15:48.215Z,99142.72
2023-03-10T17:18:20.283Z,99152.16
2023-03-10T17:20:52.739Z,99151.28
2023-03-10T17:23:25.204Z,99153.84
2023-03-10T17:25:58.695Z,99161.56
2023-03-10T17:28:30.815Z,99160.72
2023-03-10T17:31:12.631Z,99175.34
2023-03-10T17:34:53.785Z,99171.81
2023-03-10T17:37:25.758Z,99187.25
2023-03-10T17:39:57.888Z,99179.53
2023-03-10T17:42:30.331Z,99188.09
2023-03-10T17:45:05.849Z,99207.81
2023-03-10T17:47:38.889Z,99210.41
2023-03-10T17:53:13.066Z,99235.34
2023-03-10T17:55:45.200Z,99236.22
2023-03-10T17:58:17.340Z,99237.09
2023-03-10T18:00:49.733Z,99248.22
2023-03-10T18:03:22.302Z,99255.94
2023-03-10T18:05:54.373Z,99258.50
2023-03-10T18:08:26.506Z,99269.63
2023-03-10T18:11:04.720Z,99271.31
2023-03-10T18:13:37.555Z,99268.75
2023-03-10T18:16:22.295Z,99274.78
2023-03-10T18:18:55.238Z,99276.53
2023-03-10T18:21:30.008Z,99287.69
2023-03-10T18:24:02.205Z,99302.31
2023-03-10T18:26:35.633Z,99304.00
2023-03-10T18:29:08.825Z,99303.97
2023-03-10T18:31:41.203Z,99314.25
2023-03-10T18:34:13.637Z,99313.34
2023-03-10T18:36:45.758Z,99325.34
2023-03-10T18:39:18.299Z,99328.69
2023-03-10T18:41:54.105Z,99337.25
2023-03-10T18:44:26.248Z,99346.72
2023-03-10T18:46:58.444Z,99351.84
2023-03-10T18:49:30.616Z,99358.72
2023-03-10T18:52:02.762Z,99375.00
2023-03-10T18:54:34.821Z,99379.38
2023-03-10T18:57:06.913Z,99386.22
2023-03-10T18:59:39.199Z,99394.75
2023-03-10T19:02:15.399Z,99404.09
2023-03-10T19:04:48.046Z,99400.63
2023-03-10T19:07:22.893Z,99416.91
2023-03-10T19:09:55.150Z,99424.69
2023-03-10T19:12:30.560Z,99434.09
2023-03-10T19:15:07.870Z,99443.63
2023-03-10T19:17:40.490Z,99464.19
2023-03-10T19:20:15.020Z,99457.34
2023-03-10T19:22:53.505Z,99469.28
2023-03-10T19:25:25.722Z,99477.94
2023-03-10T19:27:58.203Z,99491.63
2023-03-10T19:30:32.178Z,99493.19
2023-03-10T19:33:05.381Z,99499.84
2023-03-10T19:35:40.692Z,99504.16
2023-03-10T19:38:12.894Z,99512.72
2023-03-10T19:40:47.179Z,99512.75
2023-03-10T19:43:19.156Z,99532.53
2023-03-10T19:46:23.167Z,99534.41
2023-03-10T19:48:55.312Z,99553.25
2023-03-10T19:51:29.504Z,99552.22
2023-03-10T19:54:08.493Z,99571.06
2023-03-10T19:56:45.885Z,99588.94
2023-03-10T19:59:18.080Z,99579.53
2023-03-10T20:01:51.726Z,99590.81
2023-03-10T20:04:25.491Z,99598.56
2023-03-10T20:06:59.270Z,99606.44
2023-03-10T20:09:31.602Z,99626.88
2023-03-10T20:12:03.958Z,99634.63
2023-03-10T20:14:36.199Z,99631.22
2023-03-10T20:20:42.227Z,99661.97
2023-03-10T20:23:24.190Z,99666.28
2023-03-10T20:26:09.626Z,99680.97
2023-03-10T20:28:42.015Z,99682.78
2023-03-10T20:31:21.813Z,99688.84
2023-03-10T20:33:57.078Z,99682.09
2023-03-10T20:36:34.313Z,99688.13
2023-03-10T20:39:06.434Z,99689.94
2023-03-10T20:41:52.102Z,99686.56
2023-03-10T20:44:24.212Z,99692.44
2023-03-10T20:46:56.306Z,99712.22
2023-03-10T20:49:28.438Z,99723.41
2023-03-10T20:52:00.529Z,99716.34
2023-03-10T20:54:32.570Z,99740.34
2023-03-10T20:57:04.648Z,99745.56
2023-03-10T20:59:37.409Z,99752.34
2023-03-10T21:02:15.609Z,99754.03
2023-03-10T21:07:37.266Z,99767.06
2023-03-10T21:10:14.716Z,99773.94
2023-03-10T21:12:47.207Z,99775.66
2023-03-10T21:15:23.884Z,99785.25
2023-03-10T21:17:56.537Z,99800.69
2023-03-10T21:20:28.692Z,99798.84
2023-03-10T21:23:01.399Z,99811.75
2023-03-10T21:25:33.389Z,99808.22
2023-03-10T21:28:05.511Z,99815.94
2023-03-10T21:30:38.879Z,99826.22
2023-03-10T21:33:11.032Z,99834.78
2023-03-10T21:35:43.287Z,99841.56
2023-03-10T21:38:15.771Z,99844.16
2023-03-10T21:40:50.304Z,99850.94
2023-03-10T21:43:22.503Z,99847.56
2023-03-10T21:45:58.888Z,99852.72
2023-03-10T21:48:33.907Z,99870.72
2023-03-10T21:51:09.946Z,99874.22
2023-03-10T21:53:42.893Z,99875.13
2023-03-10T21:56:17.873Z,99882.03
2023-03-10T21:58:50.198Z,99887.19
2023-03-10T22:01:23.853Z,99894.03
2023-03-10T22:03:56.536Z,99899.25
2023-03-10T22:06:28.600Z,99904.44
2023-03-10T22:09:00.687Z,99906.97
2023-03-10T22:11:32.823Z,99914.75
2023-03-10T22:14:04.986Z,99932.94
2023-03-10T22:16:37.240Z,99931.25
2023-03-10T22:19:10.688Z,99929.41
2023-03-10T22:21:45.498Z,99944.09
2023-03-10T22:28:11.370Z,99949.25
2023-03-10T22:30:43.593Z,99950.94
2023-03-10T22:33:15.693Z,99958.75
2023-03-10T22:38:29.302Z,99984.59
2023-03-10T22:41:22.013Z,99988.03
2023-03-10T22:43:56.086Z,99990.63
2023-03-10T22:50:42.060Z,100012.69
2023-03-10T22:53:17.858Z,100018.75
2023-03-10T22:59:12.851Z,100027.13
2023-03-10T23:01:44.984Z,100027.94
2023-03-10T23:07:13.486Z,100027.38
2023-03-10T23:09:45.545Z,100037.69
2023-03-10T23:12:17.671Z,100043.75
2023-03-10T23:14:49.751Z,100042.91
2023-03-10T23:17:21.798Z,100056.63
2023-03-10T23:19:56.126Z,100053.00
2023-03-10T23:22:28.279Z,100058.94
2023-03-10T23:28:07.606Z,100066.66
2023-03-10T23:30:42.187Z,100083.72
2023-03-10T23:33:21.077Z,100078.47
2023-03-10T23:35:56.342Z,100085.47
2023-03-10T23:38:52.507Z,100090.56
2023-03-10T23:41:24.862Z,100095.81
2023-03-10T23:43:57.573Z,100103.56
2023-03-10T23:46:29.625Z,100113.84
2023-03-10T23:49:01.675Z,100110.34
2023-03-10T23:52:22.240Z,100123.25
2023-03-10T23:54:56.995Z,100130.13
2023-03-10T23:57:29.078Z,100136.09
